ENSH/SVJ METAR and TAF weather

Enter ICAO airport designator
Station Type Date Time Source
ENSH METAR 2021/05/17 19:50 UTC NOAA

ENSH 171950Z 05010KT CAVOK 13/04 Q1005 RMK WIND 150FT 05013KT


Station Type Date Time Source
ENSH Decoded METAR 2021/05/17 19:50 UTC NOAA

Svolvaer / Helle, Norway (ENSH) 68-15N 014-40E 9M
May 17, 2021 - 03:50 PM EDT / 2021.05.17 1950 UTC
Wind: from the NE (050 degrees) at 12 MPH (10 KT):0
Visibility: greater than 7 mile(s):0
Temperature: 55 F (13 C)
Dew Point: 39 F (4 C)
Relative Humidity: 54%
Pressure (altimeter): 29.68 in. Hg (1005 hPa)
ob: ENSH 171950Z 05010KT CAVOK 13/04 Q1005 RMK WIND 150FT 05013KT
cycle: 20

Station Type Date Time Source
ENSH TAF UTC NOAA

Error!

Example: see airport list